Time;durP1;ratioP1;P1;durP2;ratioP2;P2;SDS_P1;SDS_P2;PMS_P1;PMS_P2;Temp;Humidity;BMP_temperature;BMP_pressure;BME280_temperature;BME280_humidity;BME280_pressure;Samples;Min_cycle;Max_cycle;Signal;HPM_P1;HPM_P2
2021/07/11 00:01:31;;;;;;;19.73;15.40;;;19.20;99.90;;;;;;5027915;28;20032;-71
2021/07/11 00:03:57;;;;;;;18.85;14.73;;;19.30;99.90;;;;;;5034390;28;20017;-71
2021/07/11 00:06:23;;;;;;;17.30;13.77;;;19.20;99.90;;;;;;5026278;28;20034;-71
2021/07/11 00:08:48;;;;;;;18.65;14.30;;;19.20;99.90;;;;;;5027603;28;20047;-71
2021/07/11 00:11:15;;;;;;;17.50;13.93;;;19.20;99.90;;;;;;5032326;28;20068;-71
2021/07/11 00:13:40;;;;;;;14.68;12.35;;;19.20;99.90;;;;;;5032300;28;20041;-70
2021/07/11 00:16:06;;;;;;;16.33;13.75;;;19.10;99.90;;;;;;5033784;28;20389;-70
2021/07/11 00:18:31;;;;;;;20.80;15.13;;;19.10;99.90;;;;;;5033294;28;20021;-71
2021/07/11 00:20:58;;;;;;;18.70;15.32;;;19.10;99.90;;;;;;5029581;28;20440;-71
2021/07/11 00:23:24;;;;;;;18.60;14.38;;;19.10;99.90;;;;;;5025915;28;20029;-71
2021/07/11 00:25:50;;;;;;;17.85;13.52;;;19.10;99.90;;;;;;5027111;28;20384;-71
2021/07/11 00:28:15;;;;;;;17.83;15.68;;;19.10;99.90;;;;;;5028476;28;20025;-71
2021/07/11 00:30:41;;;;;;;20.58;14.00;;;19.10;99.90;;;;;;5032550;28;20028;-71
2021/07/11 00:33:06;;;;;;;16.40;14.18;;;19.10;99.90;;;;;;5023134;28;20485;-71
2021/07/11 00:35:32;;;;;;;20.80;15.55;;;19.10;99.90;;;;;;5025949;28;20531;-71
2021/07/11 00:37:58;;;;;;;18.77;15.40;;;19.00;99.90;;;;;;5030122;28;20033;-71
2021/07/11 00:40:23;;;;;;;21.48;14.40;;;19.00;99.90;;;;;;5034243;28;20048;-70
2021/07/11 00:42:49;;;;;;;19.90;14.23;;;19.00;99.90;;;;;;5022516;28;20059;-71
2021/07/11 00:45:15;;;;;;;17.13;13.05;;;19.00;99.90;;;;;;5030113;28;20029;-71
2021/07/11 00:47:42;;;;;;;17.15;13.52;;;19.00;99.90;;;;;;5038850;28;20029;-70
2021/07/11 00:50:11;;;;;;;17.23;13.07;;;19.00;99.90;;;;;;5032877;28;20029;-71
2021/07/11 00:52:38;;;;;;;19.52;13.70;;;19.00;99.90;;;;;;5027353;28;20107;-71
2021/07/11 00:55:06;;;;;;;15.80;13.15;;;19.00;99.90;;;;;;5028103;28;20163;-70
2021/07/11 00:57:32;;;;;;;17.77;13.10;;;19.00;99.90;;;;;;5032935;28;20021;-71
2021/07/11 00:59:58;;;;;;;16.00;13.30;;;19.00;99.90;;;;;;5029312;28;20029;-72
2021/07/11 01:02:41;;;;;;;20.25;15.27;;;18.90;99.90;;;;;;5030769;28;20497;-71
2021/07/11 01:05:09;;;;;;;18.98;15.73;;;18.90;99.90;;;;;;5030475;28;20018;-71
2021/07/11 01:08:06;;;;;;;21.30;15.32;;;18.90;99.90;;;;;;5034196;28;20079;-71
2021/07/11 01:10:37;;;;;;;19.95;14.82;;;18.80;99.90;;;;;;5022980;28;20025;-71
2021/07/11 01:13:06;;;;;;;18.75;15.02;;;18.80;99.90;;;;;;5029336;28;20045;-71
2021/07/11 01:15:32;;;;;;;20.58;16.63;;;18.70;99.90;;;;;;5026152;28;20026;-71
2021/07/11 01:18:04;;;;;;;21.40;16.17;;;18.70;99.90;;;;;;5028387;28;20029;-70
2021/07/11 01:20:35;;;;;;;21.85;17.35;;;18.70;99.90;;;;;;5029057;28;20025;-71
2021/07/11 01:23:03;;;;;;;21.42;16.42;;;18.70;99.90;;;;;;5025970;28;20026;-71
2021/07/11 01:25:37;;;;;;;19.55;17.13;;;18.70;99.90;;;;;;5030604;28;20040;-70
2021/07/11 01:28:08;;;;;;;20.73;16.50;;;18.70;99.90;;;;;;5025744;28;20044;-72
2021/07/11 01:30:35;;;;;;;24.25;16.13;;;18.70;99.90;;;;;;5029871;28;20525;-71
2021/07/11 01:33:02;;;;;;;23.73;17.77;;;18.70;99.90;;;;;;5026804;28;20053;-71
2021/07/11 01:35:30;;;;;;;21.55;16.38;;;18.80;99.90;;;;;;5032206;28;20496;-71
2021/07/11 01:37:56;;;;;;;19.88;15.05;;;18.80;99.90;;;;;;5021793;28;20429;-71
2021/07/11 01:40:23;;;;;;;22.13;16.60;;;18.80;99.90;;;;;;5033875;28;20384;-71
2021/07/11 01:42:51;;;;;;;33.47;16.83;;;18.80;99.90;;;;;;5033018;28;20045;-71
2021/07/11 01:45:16;;;;;;;24.02;16.55;;;18.70;99.90;;;;;;5034384;28;20033;-71
2021/07/11 01:47:43;;;;;;;21.83;17.20;;;18.80;99.90;;;;;;5025904;28;20033;-71
2021/07/11 01:50:11;;;;;;;22.95;17.85;;;18.70;99.90;;;;;;5034268;28;20044;-71
2021/07/11 01:52:38;;;;;;;24.10;18.42;;;18.70;99.90;;;;;;5034785;28;20033;-71
2021/07/11 01:55:07;;;;;;;24.75;17.92;;;18.70;99.90;;;;;;5046127;28;20438;-71
2021/07/11 01:57:34;;;;;;;30.48;19.25;;;18.70;99.90;;;;;;5028889;28;20033;-71
2021/07/11 02:00:00;;;;;;;20.98;16.60;;;18.70;99.90;;;;;;5032782;28;20112;-71
2021/07/11 02:02:26;;;;;;;25.83;15.57;;;18.70;99.90;;;;;;5032111;28;20145;-70
2021/07/11 02:04:52;;;;;;;21.95;18.95;;;18.70;99.90;;;;;;5028761;28;20029;-70
2021/07/11 02:07:17;;;;;;;22.55;18.25;;;18.70;99.90;;;;;;5026818;28;20397;-70
2021/07/11 02:09:43;;;;;;;25.10;19.17;;;18.70;99.90;;;;;;5031585;28;20013;-70
2021/07/11 02:12:10;;;;;;;27.05;19.80;;;18.70;99.90;;;;;;5036134;28;20028;-70
2021/07/11 02:14:41;;;;;;;28.58;20.73;;;18.70;99.90;;;;;;5031687;28;20040;-69
2021/07/11 02:17:17;;;;;;;31.45;21.70;;;18.70;99.90;;;;;;5031191;28;20659;-69
2021/07/11 02:19:44;;;;;;;28.50;21.10;;;18.70;99.90;;;;;;5031085;28;20330;-69
2021/07/11 02:22:11;;;;;;;33.85;23.67;;;18.70;99.90;;;;;;5028618;28;20053;-70
2021/07/11 02:24:39;;;;;;;38.08;24.75;;;18.70;99.90;;;;;;5032739;28;20025;-69
2021/07/11 02:27:07;;;;;;;41.78;25.40;;;18.70;99.90;;;;;;5029208;28;20025;-70
2021/07/11 02:29:38;;;;;;;49.33;30.27;;;18.70;99.90;;;;;;5031739;28;20029;-70
2021/07/11 02:32:04;;;;;;;58.53;32.35;;;18.70;99.90;;;;;;5033135;28;20143;-70
2021/07/11 02:34:32;;;;;;;74.38;37.90;;;18.70;99.90;;;;;;5034588;28;20489;-69
2021/07/11 02:37:01;;;;;;;77.50;38.95;;;18.70;99.90;;;;;;5027142;28;20029;-69
2021/07/11 02:39:27;;;;;;;86.55;42.15;;;18.80;99.90;;;;;;5030548;28;20278;-70
2021/07/11 02:41:57;;;;;;;90.03;42.00;;;18.70;99.90;;;;;;5028403;28;20034;-70
2021/07/11 02:44:23;;;;;;;84.90;43.15;;;18.70;99.90;;;;;;5028667;28;20021;-69
2021/07/11 02:46:56;;;;;;;92.55;46.65;;;18.70;99.90;;;;;;5033740;28;20028;-70
2021/07/11 02:49:22;;;;;;;;;;;18.80;99.90;;;;;;5025260;28;20025;-70
2021/07/11 02:51:53;;;;;;;94.68;47.28;;;18.80;99.90;;;;;;5029334;28;19995;-70
2021/07/11 02:54:26;;;;;;;111.47;49.97;;;18.90;99.90;;;;;;5033263;28;20033;-70
2021/07/11 02:56:56;;;;;;;96.82;46.10;;;18.90;99.90;;;;;;5025743;28;20026;-71
2021/07/11 02:59:23;;;;;;;116.50;49.40;;;18.90;99.90;;;;;;5027578;28;20021;-70
2021/07/11 03:01:49;;;;;;;92.32;45.15;;;18.90;99.90;;;;;;5034232;28;20037;-70
2021/07/11 03:04:16;;;;;;;83.82;44.88;;;18.80;99.90;;;;;;5032045;28;20029;-71
2021/07/11 03:06:42;;;;;;;93.13;48.17;;;18.90;99.90;;;;;;5030895;28;20032;-69
2021/07/11 03:09:07;;;;;;;92.97;45.72;;;18.90;99.90;;;;;;5029716;28;20014;-70
2021/07/11 03:11:37;;;;;;;120.22;51.72;;;18.90;99.90;;;;;;5027402;28;20087;-70
2021/07/11 03:14:05;;;;;;;87.50;43.70;;;18.90;99.90;;;;;;5031427;28;20096;-70
2021/07/11 03:16:32;;;;;;;95.60;46.85;;;18.90;99.90;;;;;;5025383;28;20026;-70
2021/07/11 03:19:00;;;;;;;78.70;43.17;;;18.90;99.90;;;;;;5030287;28;20025;-70
2021/07/11 03:21:28;;;;;;;79.57;42.35;;;18.90;99.90;;;;;;5036037;28;20040;-70
2021/07/11 03:23:55;;;;;;;65.45;38.00;;;18.90;99.90;;;;;;5035734;28;20040;-70
2021/07/11 03:26:22;;;;;;;77.97;42.00;;;18.90;99.90;;;;;;5034810;28;20025;-70
2021/07/11 03:28:49;;;;;;;65.97;38.53;;;19.00;99.90;;;;;;5032471;28;20405;-70
2021/07/11 03:31:15;;;;;;;62.10;35.25;;;18.90;99.90;;;;;;5036554;28;20022;-70
2021/07/11 03:33:44;;;;;;;64.82;37.08;;;19.00;99.90;;;;;;5035712;28;20041;-69
2021/07/11 03:36:15;;;;;;;69.43;38.22;;;19.00;99.90;;;;;;5032913;28;20033;-70
2021/07/11 03:38:45;;;;;;;71.18;39.75;;;19.00;99.90;;;;;;5032576;28;20049;-70
2021/07/11 03:41:18;;;;;;;67.10;40.67;;;19.00;99.90;;;;;;5030607;28;20077;-70
2021/07/11 03:43:48;;;;;;;73.13;41.13;;;19.10;99.90;;;;;;5035052;28;20079;-69
2021/07/11 03:46:16;;;;;;;65.10;38.75;;;19.10;99.90;;;;;;5032341;28;20032;-70
2021/07/11 03:48:54;;;;;;;87.18;44.40;;;19.00;99.90;;;;;;5036734;28;20021;-69
2021/07/11 03:51:26;;;;;;;91.75;45.75;;;19.10;99.90;;;;;;5035922;28;20108;-69
2021/07/11 03:53:56;;;;;;;87.03;45.10;;;19.00;99.90;;;;;;5036191;28;20024;-70
2021/07/11 03:56:29;;;;;;;91.30;44.20;;;19.00;99.90;;;;;;5034062;28;20030;-69
2021/07/11 03:58:57;;;;;;;109.13;49.42;;;19.10;99.90;;;;;;5027885;28;20029;-70
2021/07/11 04:01:25;;;;;;;82.82;44.45;;;19.00;99.90;;;;;;5035004;28;20036;-69
2021/07/11 04:03:53;;;;;;;91.15;49.20;;;19.10;99.90;;;;;;5028746;28;20018;-70
2021/07/11 04:06:20;;;;;;;84.82;46.72;;;19.10;99.90;;;;;;5035246;28;20064;-70
2021/07/11 04:08:48;;;;;;;88.93;48.20;;;19.10;99.90;;;;;;5032665;28;20044;-70
2021/07/11 04:11:13;;;;;;;91.30;49.10;;;19.10;99.90;;;;;;5030245;28;20017;-70
2021/07/11 04:13:40;;;;;;;86.72;47.13;;;19.10;99.90;;;;;;5032094;28;20354;-70
2021/07/11 04:16:08;;;;;;;86.03;49.03;;;19.10;99.90;;;;;;5037516;28;20477;-70
2021/07/11 04:18:41;;;;;;;85.10;49.13;;;19.10;99.90;;;;;;5030451;28;20039;-70
2021/07/11 04:21:08;;;;;;;91.30;49.47;;;19.10;99.90;;;;;;5036475;28;20039;-70
2021/07/11 04:23:35;;;;;;;79.38;49.42;;;19.10;99.90;;;;;;5034595;28;20075;-70
2021/07/11 04:26:03;;;;;;;82.97;47.42;;;19.20;99.90;;;;;;5035063;28;20079;-70
2021/07/11 04:28:31;;;;;;;84.90;46.40;;;19.20;99.90;;;;;;5024514;28;20024;-69
2021/07/11 04:31:02;;;;;;;96.40;47.80;;;19.20;99.90;;;;;;5035129;28;20032;-70
2021/07/11 04:33:29;;;;;;;89.70;48.45;;;19.20;99.90;;;;;;5034375;28;20596;-70
2021/07/11 04:35:55;;;;;;;110.60;51.90;;;19.20;99.90;;;;;;5032939;28;20129;-70
2021/07/11 04:38:20;;;;;;;92.00;47.97;;;19.20;99.90;;;;;;5030926;28;20100;-70
2021/07/11 04:40:46;;;;;;;89.22;46.38;;;19.30;99.90;;;;;;5038411;28;20034;-70
2021/07/11 04:43:16;;;;;;;82.13;44.30;;;19.20;99.90;;;;;;5030974;28;20113;-70
2021/07/11 04:45:42;;;;;;;91.38;49.50;;;19.20;99.90;;;;;;5034226;28;20017;-69
2021/07/11 04:48:07;;;;;;;85.40;46.63;;;19.20;99.90;;;;;;5037565;28;20495;-70
2021/07/11 04:50:33;;;;;;;98.10;49.17;;;19.20;99.90;;;;;;5035579;28;20064;-69
2021/07/11 04:52:59;;;;;;;91.85;49.10;;;19.20;99.90;;;;;;5026921;28;20105;-70
2021/07/11 04:55:25;;;;;;;83.97;47.83;;;19.20;99.90;;;;;;5034823;28;20087;-70
2021/07/11 04:57:50;;;;;;;89.95;49.75;;;19.20;99.90;;;;;;5031193;28;20029;-70
2021/07/11 05:00:17;;;;;;;108.68;55.08;;;19.10;99.90;;;;;;5029435;28;20041;-69
2021/07/11 05:02:43;;;;;;;113.18;53.20;;;19.10;99.90;;;;;;5032829;28;20026;-70
2021/07/11 05:05:09;;;;;;;109.80;54.03;;;19.10;99.90;;;;;;5026988;28;20040;-69
2021/07/11 05:07:36;;;;;;;119.60;56.45;;;19.10;99.90;;;;;;5031872;28;20018;-69
2021/07/11 05:10:07;;;;;;;142.60;62.22;;;19.10;99.90;;;;;;5035100;28;20014;-70
2021/07/11 05:12:33;;;;;;;109.57;52.90;;;19.10;99.90;;;;;;5032375;28;20040;-69
2021/07/11 05:14:59;;;;;;;108.30;55.35;;;19.10;99.90;;;;;;5028611;28;20134;-70
2021/07/11 05:17:25;;;;;;;117.63;56.08;;;19.20;99.90;;;;;;5031921;28;20112;-69
2021/07/11 05:19:50;;;;;;;110.15;57.50;;;19.20;99.90;;;;;;5034030;28;20117;-69
2021/07/11 05:22:16;;;;;;;107.05;57.53;;;19.30;99.90;;;;;;5033401;28;20034;-70
2021/07/11 05:24:42;;;;;;;99.55;53.10;;;19.20;99.90;;;;;;5027989;28;20018;-69
2021/07/11 05:27:08;;;;;;;117.55;55.88;;;19.10;99.90;;;;;;5035373;28;20017;-70
2021/07/11 05:29:33;;;;;;;110.63;54.67;;;18.90;99.90;;;;;;5036542;28;20018;-70
2021/07/11 05:31:59;;;;;;;107.35;54.55;;;19.00;99.90;;;;;;5032473;28;20075;-69
2021/07/11 05:34:25;;;;;;;107.57;56.05;;;18.90;99.90;;;;;;5023368;28;20041;-70
2021/07/11 05:36:50;;;;;;;114.07;57.35;;;18.90;99.90;;;;;;5032910;28;20147;-69
2021/07/11 05:39:16;;;;;;;90.75;48.80;;;18.90;99.90;;;;;;5033776;28;20412;-70
2021/07/11 05:41:42;;;;;;;75.68;42.05;;;18.80;99.90;;;;;;5025726;28;20038;-70
2021/07/11 05:44:08;;;;;;;84.82;44.22;;;18.80;99.90;;;;;;5034308;28;20019;-69
2021/07/11 05:46:34;;;;;;;76.25;41.75;;;18.80;99.90;;;;;;5031989;28;20397;-69
2021/07/11 05:48:59;;;;;;;54.08;32.72;;;18.80;99.90;;;;;;5036118;28;20009;-69
2021/07/11 05:51:26;;;;;;;48.63;30.85;;;18.70;99.90;;;;;;5033754;28;20021;-70
2021/07/11 05:53:52;;;;;;;44.53;29.95;;;18.70;99.90;;;;;;5035640;28;20113;-70
2021/07/11 05:56:18;;;;;;;47.80;29.08;;;18.80;99.90;;;;;;5032034;28;20082;-70
2021/07/11 05:58:44;;;;;;;43.00;28.65;;;18.80;99.90;;;;;;5028915;28;20076;-69
2021/07/11 06:01:09;;;;;;;33.97;25.55;;;18.80;99.90;;;;;;5028204;28;20040;-69
2021/07/11 06:03:35;;;;;;;38.42;26.38;;;18.80;99.90;;;;;;5030874;28;20104;-69
2021/07/11 06:06:01;;;;;;;36.83;27.63;;;18.80;99.90;;;;;;5036334;28;20030;-69
2021/07/11 06:08:27;;;;;;;40.28;28.00;;;18.80;99.90;;;;;;5026089;28;20580;-70
2021/07/11 06:10:55;;;;;;;42.05;26.88;;;18.80;99.90;;;;;;5030529;28;20029;-69
2021/07/11 06:13:21;;;;;;;38.65;28.13;;;19.00;99.90;;;;;;5034071;28;20026;-69
2021/07/11 06:15:47;;;;;;;43.58;29.08;;;19.00;99.90;;;;;;5032294;28;20402;-70
2021/07/11 06:18:12;;;;;;;45.97;31.92;;;18.90;99.90;;;;;;5032725;28;20043;-71
2021/07/11 06:20:38;;;;;;;41.95;29.33;;;18.90;99.90;;;;;;5031210;28;20088;-70
2021/07/11 06:23:05;;;;;;;43.92;30.00;;;18.90;99.90;;;;;;5029303;28;20520;-70
2021/07/11 06:25:31;;;;;;;48.72;32.78;;;19.00;99.90;;;;;;5029555;28;20034;-70
2021/07/11 06:27:57;;;;;;;44.45;32.17;;;19.00;99.90;;;;;;5035918;28;20024;-69
2021/07/11 06:30:23;;;;;;;54.20;34.92;;;19.10;99.90;;;;;;5024324;28;20037;-70
2021/07/11 06:32:49;;;;;;;48.67;33.83;;;19.10;99.90;;;;;;5030279;28;20513;-70
2021/07/11 06:35:20;;;;;;;51.42;36.95;;;19.10;99.90;;;;;;5032123;28;20108;-70
2021/07/11 06:37:47;;;;;;;45.50;33.53;;;19.10;99.90;;;;;;5030352;28;20013;-70
2021/07/11 06:40:15;;;;;;;46.80;33.42;;;19.10;99.90;;;;;;5031875;28;20037;-70
2021/07/11 06:42:40;;;;;;;48.08;32.47;;;19.10;99.90;;;;;;5029751;28;20035;-70
2021/07/11 06:45:08;;;;;;;48.50;33.05;;;19.10;99.90;;;;;;5029036;28;20097;-70
2021/07/11 06:47:34;;;;;;;46.75;32.63;;;19.10;99.90;;;;;;5035201;28;20079;-70
2021/07/11 06:50:00;;;;;;;40.92;30.48;;;19.20;99.90;;;;;;5031143;28;20029;-70
2021/07/11 06:52:26;;;;;;;48.72;31.88;;;19.10;99.90;;;;;;5028695;28;20057;-70
2021/07/11 06:54:52;;;;;;;45.00;31.95;;;19.20;99.90;;;;;;5029848;28;20389;-70
2021/07/11 06:57:19;;;;;;;50.67;33.58;;;19.20;99.90;;;;;;5032787;28;20106;-70
2021/07/11 06:59:44;;;;;;;43.50;31.45;;;19.30;99.90;;;;;;5032089;28;20022;-70
2021/07/11 07:02:10;;;;;;;41.50;29.60;;;19.20;99.90;;;;;;5027120;28;20132;-70
2021/07/11 07:04:36;;;;;;;47.90;31.42;;;19.10;99.90;;;;;;5030457;28;20132;-70
2021/07/11 07:07:02;;;;;;;46.55;30.70;;;19.20;99.90;;;;;;5031820;28;20026;-70
2021/07/11 07:09:28;;;;;;;40.90;31.23;;;19.10;99.90;;;;;;5030547;28;20057;-70
2021/07/11 07:11:53;;;;;;;42.33;30.40;;;19.10;99.90;;;;;;5033134;28;20045;-71
2021/07/11 07:14:19;;;;;;;39.08;29.20;;;19.20;99.90;;;;;;5032793;28;20030;-69
2021/07/11 07:16:45;;;;;;;34.67;27.55;;;19.30;99.90;;;;;;5030082;28;20024;-70
2021/07/11 07:19:10;;;;;;;32.40;27.38;;;19.40;99.90;;;;;;5027612;28;20029;-69
2021/07/11 07:21:36;;;;;;;32.75;24.80;;;19.50;99.90;;;;;;5030012;28;20164;-70
2021/07/11 07:24:02;;;;;;;29.65;23.50;;;19.70;99.90;;;;;;5030847;28;20024;-70
2021/07/11 07:26:27;;;;;;;32.58;25.02;;;19.70;99.90;;;;;;5030245;28;20504;-70
2021/07/11 07:28:53;;;;;;;26.10;21.33;;;19.80;99.90;;;;;;5030179;28;20381;-70
2021/07/11 07:31:19;;;;;;;24.27;18.60;;;19.90;99.90;;;;;;5032380;28;20022;-70
2021/07/11 07:33:44;;;;;;;19.90;16.00;;;20.00;99.90;;;;;;5029427;28;20355;-70
2021/07/11 07:36:10;;;;;;;21.58;16.52;;;20.10;99.90;;;;;;5033603;28;20040;-70
2021/07/11 07:38:36;;;;;;;24.85;19.08;;;20.00;99.90;;;;;;5032392;28;20087;-70
2021/07/11 07:41:01;;;;;;;17.98;14.65;;;20.20;99.90;;;;;;5031649;28;20028;-70
2021/07/11 07:43:27;;;;;;;20.15;16.05;;;20.20;99.90;;;;;;5032132;28;20068;-70
2021/07/11 07:45:53;;;;;;;15.65;12.90;;;20.30;99.90;;;;;;5032209;28;20599;-70
2021/07/11 07:48:18;;;;;;;18.38;14.32;;;20.40;99.90;;;;;;5031678;28;20101;-70
2021/07/11 07:50:44;;;;;;;17.50;11.88;;;20.40;99.90;;;;;;5032638;28;20481;-71
2021/07/11 07:53:10;;;;;;;14.07;12.57;;;20.30;99.90;;;;;;5027144;28;20029;-70
2021/07/11 07:55:35;;;;;;;17.83;13.00;;;20.40;99.90;;;;;;5024744;28;20112;-70
2021/07/11 07:58:02;;;;;;;15.77;11.38;;;20.50;99.90;;;;;;5032475;28;20069;-70
2021/07/11 08:00:28;;;;;;;12.70;10.13;;;20.50;99.90;;;;;;5033013;28;20034;-70
2021/07/11 08:02:54;;;;;;;12.70;10.40;;;20.50;99.90;;;;;;5029391;28;20036;-70
2021/07/11 08:05:20;;;;;;;14.40;10.75;;;20.60;99.90;;;;;;5031033;28;20034;-70
2021/07/11 08:07:46;;;;;;;11.98;9.63;;;20.70;99.90;;;;;;5033373;28;20071;-70
2021/07/11 08:10:17;;;;;;;9.65;8.32;;;20.80;99.90;;;;;;5030061;28;20036;-70
2021/07/11 08:12:44;;;;;;;10.85;8.18;;;20.80;99.90;;;;;;5035340;28;20022;-70
2021/07/11 08:15:16;;;;;;;10.88;8.05;;;20.80;99.90;;;;;;5037012;28;20485;-70
2021/07/11 08:17:48;;;;;;;8.98;7.38;;;20.90;99.90;;;;;;5032629;28;20032;-70
2021/07/11 08:20:18;;;;;;;10.70;7.95;;;20.90;99.90;;;;;;5029568;28;20044;-70
2021/07/11 08:22:44;;;;;;;9.90;7.63;;;20.90;99.90;;;;;;5032737;28;20040;-70
2021/07/11 08:25:11;;;;;;;9.75;8.00;;;21.00;99.90;;;;;;5035235;28;20030;-70
2021/07/11 08:27:38;;;;;;;10.30;8.65;;;21.00;99.90;;;;;;5028243;28;20026;-70
2021/07/11 08:30:05;;;;;;;7.32;6.60;;;21.10;99.90;;;;;;5030190;28;20061;-70
2021/07/11 08:32:31;;;;;;;9.20;7.10;;;21.10;99.90;;;;;;5036582;28;20481;-70
2021/07/11 08:34:57;;;;;;;7.38;6.57;;;21.20;99.90;;;;;;5029038;28;20154;-70
2021/07/11 08:37:23;;;;;;;9.30;8.15;;;21.30;99.90;;;;;;5033731;28;20052;-71
2021/07/11 08:39:48;;;;;;;8.68;7.57;;;21.40;99.90;;;;;;5031113;28;20095;-71
2021/07/11 08:42:14;;;;;;;9.73;6.80;;;21.40;99.90;;;;;;5036118;28;20033;-73
2021/07/11 08:44:40;;;;;;;10.57;7.43;;;21.60;99.90;;;;;;5033868;28;20032;-71
2021/07/11 08:47:05;;;;;;;7.53;5.90;;;21.60;99.90;;;;;;5029506;28;20556;-71
2021/07/11 08:49:31;;;;;;;7.75;5.95;;;21.70;99.90;;;;;;5031775;28;20021;-71
2021/07/11 08:51:59;;;;;;;7.57;6.85;;;21.70;99.90;;;;;;5038378;28;20017;-70
2021/07/11 08:54:25;;;;;;;8.13;6.88;;;21.90;99.90;;;;;;5033442;28;20031;-71
2021/07/11 08:56:56;;;;;;;7.80;6.70;;;21.80;99.90;;;;;;5029966;28;20022;-71
2021/07/11 08:59:22;;;;;;;6.85;6.22;;;21.90;99.90;;;;;;5033428;28;20056;-72
2021/07/11 09:01:48;;;;;;;7.97;6.60;;;22.00;99.90;;;;;;5034746;28;20034;-71
2021/07/11 09:04:13;;;;;;;8.98;6.75;;;21.70;99.90;;;;;;5034505;28;20083;-72
2021/07/11 09:06:44;;;;;;;7.10;6.40;;;21.80;99.90;;;;;;5032588;28;20048;-70
2021/07/11 09:09:12;;;;;;;5.95;5.45;;;22.00;99.90;;;;;;5033165;28;20419;-71
2021/07/11 09:12:04;;;;;;;6.38;4.78;;;22.10;99.90;;;;;;5031445;28;20108;-71
2021/07/11 09:14:31;;;;;;;8.82;6.40;;;22.20;99.90;;;;;;5033740;28;20017;-70
2021/07/11 09:16:59;;;;;;;8.25;7.43;;;22.40;99.90;;;;;;5031094;28;20089;-71
2021/07/11 09:19:34;;;;;;;8.68;7.78;;;22.50;99.90;;;;;;5030640;28;20044;-71
2021/07/11 09:22:07;;;;;;;7.45;6.75;;;22.50;99.90;;;;;;5032309;28;20039;-71
2021/07/11 09:24:35;;;;;;;6.40;5.70;;;22.60;99.90;;;;;;5037006;28;20025;-71
2021/07/11 09:27:13;;;;;;;7.00;6.30;;;22.70;99.90;;;;;;5032216;28;20640;-71
2021/07/11 09:29:40;;;;;;;8.68;6.85;;;22.80;99.90;;;;;;5026315;28;20444;-71
2021/07/11 09:32:07;;;;;;;7.43;6.72;;;22.90;99.90;;;;;;5033636;28;20049;-71
2021/07/11 09:34:34;;;;;;;8.32;7.60;;;23.00;99.90;;;;;;5034734;28;20021;-71
2021/07/11 09:37:06;;;;;;;9.43;8.32;;;23.10;99.90;;;;;;5035216;28;20018;-71
2021/07/11 09:39:32;;;;;;;8.65;7.90;;;23.20;99.90;;;;;;5028224;28;20036;-71
2021/07/11 09:42:01;;;;;;;7.40;6.72;;;23.20;99.90;;;;;;5031618;28;20126;-71
2021/07/11 09:44:43;;;;;;;8.15;6.90;;;23.40;99.90;;;;;;5033548;28;20014;-71
2021/07/11 09:47:20;;;;;;;6.35;5.85;;;23.50;99.90;;;;;;5034063;28;20014;-71
2021/07/11 09:50:04;;;;;;;5.00;4.50;;;23.60;99.90;;;;;;5028099;28;20481;-71
2021/07/11 09:52:32;;;;;;;7.28;6.55;;;23.80;99.90;;;;;;5050705;28;20029;-71
2021/07/11 09:55:00;;;;;;;7.10;6.50;;;23.90;99.90;;;;;;5024991;28;20029;-71
2021/07/11 09:57:41;;;;;;;7.57;6.45;;;24.00;99.90;;;;;;5032985;28;20026;-71
2021/07/11 10:00:13;;;;;;;7.25;6.65;;;24.10;99.90;;;;;;5022120;28;20033;-71
2021/07/11 10:02:40;;;;;;;7.20;5.93;;;24.20;99.90;;;;;;5032181;28;20100;-72
2021/07/11 10:05:08;;;;;;;8.13;6.82;;;24.20;99.90;;;;;;5031593;28;20029;-72
2021/07/11 10:07:35;;;;;;;8.65;7.75;;;24.20;99.90;;;;;;5026374;28;20481;-71
2021/07/11 10:10:02;;;;;;;7.43;6.72;;;24.00;99.90;;;;;;5033383;28;20052;-71
2021/07/11 10:12:28;;;;;;;6.80;6.30;;;24.20;99.90;;;;;;5011914;28;20033;-72
2021/07/11 10:14:53;;;;;;;6.80;6.20;;;23.90;99.90;;;;;;5031215;28;20022;-71
2021/07/11 10:17:20;;;;;;;7.82;7.07;;;24.00;99.90;;;;;;5023992;28;20033;-72
2021/07/11 10:19:50;;;;;;;6.22;5.68;;;24.20;99.90;;;;;;5032037;28;20036;-71
2021/07/11 10:22:17;;;;;;;6.07;5.57;;;24.30;99.90;;;;;;5029860;28;20044;-73
2021/07/11 10:24:46;;;;;;;5.90;5.50;;;24.60;99.90;;;;;;5028804;28;20014;-71
2021/07/11 10:27:25;;;;;;;5.75;5.25;;;24.80;99.90;;;;;;5032957;28;20021;-72
2021/07/11 10:29:55;;;;;;;7.30;5.47;;;25.00;99.90;;;;;;5030225;28;20136;-72
2021/07/11 10:32:27;;;;;;;4.80;4.40;;;24.80;99.90;;;;;;5023337;28;20029;-73
2021/07/11 10:34:53;;;;;;;4.22;3.92;;;24.60;99.90;;;;;;5033955;28;20140;-72
2021/07/11 10:37:25;;;;;;;4.30;4.00;;;24.70;99.90;;;;;;5030505;28;20029;-71
2021/07/11 10:40:05;;;;;;;3.90;3.60;;;24.80;99.90;;;;;;5030696;28;20133;-71
2021/07/11 10:42:31;;;;;;;3.63;2.80;;;24.90;99.90;;;;;;5027343;28;20128;-72
2021/07/11 10:45:23;;;;;;;2.22;2.10;;;25.00;99.90;;;;;;5029267;28;20768;-71
2021/07/11 10:47:50;;;;;;;3.42;2.78;;;24.90;99.90;;;;;;5026168;28;20038;-71
2021/07/11 10:50:28;;;;;;;3.97;3.60;;;24.90;99.90;;;;;;5030417;28;20030;-73
2021/07/11 10:52:56;;;;;;;3.67;3.38;;;25.20;99.90;;;;;;5027725;28;20108;-71
2021/07/11 10:55:22;;;;;;;3.42;3.22;;;25.40;99.90;;;;;;5032289;28;20022;-72
2021/07/11 10:57:47;;;;;;;4.07;2.28;;;25.50;99.90;;;;;;5031386;28;20030;-71
2021/07/11 11:00:20;;;;;;;2.97;2.25;;;25.60;99.90;;;;;;5030377;28;20045;-72
2021/07/11 11:02:50;;;;;;;;;;;25.20;99.90;;;;;;5025916;28;20116;-71
2021/07/11 11:05:24;;;;;;;3.92;3.47;;;25.30;99.90;;;;;;5030088;28;20285;-72
2021/07/11 11:07:57;;;;;;;3.55;3.25;;;25.40;99.90;;;;;;5020889;28;20037;-72
2021/07/11 11:10:26;;;;;;;;;;;25.40;99.90;;;;;;5026846;28;20041;-75
2021/07/11 11:13:05;;;;;;;3.80;3.50;;;25.20;99.90;;;;;;5033058;28;20373;-71
2021/07/11 11:15:41;;;;;;;3.17;2.72;;;25.00;99.90;;;;;;5029089;28;20018;-72
2021/07/11 11:18:15;;;;;;;12.07;5.22;;;24.80;99.90;;;;;;5025504;28;20088;-72
2021/07/11 11:20:41;;;;;;;3.28;2.97;;;25.10;99.90;;;;;;5029263;28;20032;-73
2021/07/11 11:23:11;;;;;;;5.25;3.03;;;25.10;99.90;;;;;;5025681;28;20018;-75
2021/07/11 11:25:41;;;;;;;7.97;3.80;;;24.80;99.90;;;;;;5027313;28;20018;-73
2021/07/11 11:28:07;;;;;;;3.67;3.33;;;24.70;99.90;;;;;;5028543;28;20025;-73
2021/07/11 11:30:33;;;;;;;3.20;2.90;;;24.70;99.90;;;;;;5025564;28;20033;-73
2021/07/11 11:33:00;;;;;;;4.60;2.78;;;24.50;99.90;;;;;;5026834;28;20029;-75
2021/07/11 11:35:32;;;;;;;3.92;3.63;;;24.50;99.90;;;;;;5029813;28;20402;-74
2021/07/11 11:38:00;;;;;;;4.93;3.53;;;24.50;99.90;;;;;;5030922;28;20022;-74
2021/07/11 11:40:30;;;;;;;3.85;3.38;;;24.60;99.90;;;;;;5033120;28;20034;-74
2021/07/11 11:42:59;;;;;;;3.90;3.60;;;24.30;99.90;;;;;;5036574;28;20493;-74
2021/07/11 11:45:29;;;;;;;5.40;4.40;;;24.30;99.90;;;;;;5034856;28;20068;-72
2021/07/11 11:48:01;;;;;;;4.32;3.63;;;24.10;99.90;;;;;;5028166;28;20545;-74
2021/07/11 11:50:28;;;;;;;7.18;3.95;;;24.30;99.90;;;;;;5036420;28;20025;-74
2021/07/11 11:53:15;;;;;;;3.95;3.65;;;24.30;99.90;;;;;;5037957;28;20030;-74
2021/07/11 11:55:51;;;;;;;4.05;3.75;;;24.80;99.90;;;;;;5033345;28;20686;-76
2021/07/11 11:58:25;;;;;;;8.07;3.70;;;25.10;99.90;;;;;;5031475;28;20029;-73
2021/07/11 12:01:04;;;;;;;3.90;3.53;;;25.50;99.90;;;;;;5029855;28;20038;-74
2021/07/11 12:03:30;;;;;;;2.90;2.60;;;25.20;99.90;;;;;;5035273;28;20072;-75
2021/07/11 12:06:00;;;;;;;3.75;3.38;;;25.20;99.90;;;;;;5036660;28;20447;-74
2021/07/11 12:08:27;;;;;;;2.95;2.75;;;25.40;99.90;;;;;;5034053;28;20025;-72
2021/07/11 12:10:53;;;;;;;2.97;2.75;;;25.90;99.90;;;;;;5033479;28;20524;-73
2021/07/11 12:13:24;;;;;;;2.80;2.60;;;25.60;99.90;;;;;;5034802;28;20022;-75
2021/07/11 12:15:59;;;;;;;3.20;2.90;;;25.60;99.90;;;;;;5033929;28;20101;-74
2021/07/11 12:18:25;;;;;;;2.85;2.53;;;25.90;99.90;;;;;;5036099;28;20454;-74
2021/07/11 12:20:53;;;;;;;2.78;2.42;;;25.80;99.90;;;;;;5033153;28;20028;-74
2021/07/11 12:23:19;;;;;;;2.72;2.53;;;25.90;99.90;;;;;;5034914;28;20094;-75
2021/07/11 12:25:56;;;;;;;2.42;2.22;;;26.30;99.90;;;;;;5034846;28;20436;-74
2021/07/11 12:28:21;;;;;;;3.05;2.83;;;26.50;99.90;;;;;;5033235;28;20041;-74
2021/07/11 12:30:47;;;;;;;3.78;2.35;;;26.20;99.90;;;;;;5051515;28;20021;-73
2021/07/11 12:33:33;;;;;;;2.28;2.17;;;26.50;99.90;;;;;;5035619;28;20018;-74
2021/07/11 12:36:00;;;;;;;2.20;2.10;;;26.50;99.90;;;;;;5035314;28;20025;-74
2021/07/11 12:38:38;;;;;;;1.90;1.80;;;26.30;99.90;;;;;;5033835;28;20025;-71